sensor_id;sensor_type;location;lat;lon;timestamp;pressure;altitude;pressure_sealevel;temperature;humidity
46756;BME280;32506;52.826;-1.192;2023-05-16T00:00:23;101792.00;;;10.74;39.31
46756;BME280;32506;52.826;-1.192;2023-05-16T00:02:51;101792.78;;;10.68;39.17
46756;BME280;32506;52.826;-1.192;2023-05-16T00:05:17;101793.50;;;10.62;39.37
46756;BME280;32506;52.826;-1.192;2023-05-16T00:07:44;101790.53;;;10.56;39.43
46756;BME280;32506;52.826;-1.192;2023-05-16T00:10:11;101793.97;;;10.50;39.50
46756;BME280;32506;52.826;-1.192;2023-05-16T00:12:37;101796.34;;;10.45;39.47
46756;BME280;32506;52.826;-1.192;2023-05-16T00:15:07;101794.19;;;10.40;39.59
46756;BME280;32506;52.826;-1.192;2023-05-16T00:17:34;101795.75;;;10.35;39.26
46756;BME280;32506;52.826;-1.192;2023-05-16T00:20:01;101783.94;;;10.29;39.48
46756;BME280;32506;52.826;-1.192;2023-05-16T00:22:35;101780.16;;;10.23;39.41
46756;BME280;32506;52.826;-1.192;2023-05-16T00:25:01;101772.84;;;10.17;39.48
46756;BME280;32506;52.826;-1.192;2023-05-16T00:27:26;101772.56;;;10.12;39.58
46756;BME280;32506;52.826;-1.192;2023-05-16T00:29:51;101774.94;;;10.07;39.72
46756;BME280;32506;52.826;-1.192;2023-05-16T00:32:17;101770.97;;;10.03;39.73
46756;BME280;32506;52.826;-1.192;2023-05-16T00:34:42;101767.00;;;9.99;39.62
46756;BME280;32506;52.826;-1.192;2023-05-16T00:37:08;101763.19;;;9.93;39.68
46756;BME280;32506;52.826;-1.192;2023-05-16T00:39:33;101765.56;;;9.88;39.75
46756;BME280;32506;52.826;-1.192;2023-05-16T00:41:59;101768.78;;;9.83;39.79
46756;BME280;32506;52.826;-1.192;2023-05-16T00:44:24;101772.84;;;9.79;40.01
46756;BME280;32506;52.826;-1.192;2023-05-16T00:46:50;101770.50;;;9.76;39.85
46756;BME280;32506;52.826;-1.192;2023-05-16T00:49:16;101766.72;;;9.70;39.97
46756;BME280;32506;52.826;-1.192;2023-05-16T00:51:42;101765.41;;;9.66;40.16
46756;BME280;32506;52.826;-1.192;2023-05-16T00:54:08;101758.75;;;9.62;40.38
46756;BME280;32506;52.826;-1.192;2023-05-16T00:56:33;101758.28;;;9.58;40.31
46756;BME280;32506;52.826;-1.192;2023-05-16T00:58:59;101751.63;;;9.54;39.92
46756;BME280;32506;52.826;-1.192;2023-05-16T01:01:26;101766.34;;;9.50;40.56
46756;BME280;32506;52.826;-1.192;2023-05-16T01:03:52;101761.38;;;9.47;40.30
46756;BME280;32506;52.826;-1.192;2023-05-16T01:06:18;101760.06;;;9.43;40.46
46756;BME280;32506;52.826;-1.192;2023-05-16T01:08:44;101758.75;;;9.39;40.72
46756;BME280;32506;52.826;-1.192;2023-05-16T01:16:50;101759.31;;;9.26;40.85
46756;BME280;32506;52.826;-1.192;2023-05-16T01:22:24;101745.22;;;9.17;41.21
46756;BME280;32506;52.826;-1.192;2023-05-16T01:27:41;101753.91;;;9.11;41.51
46756;BME280;32506;52.826;-1.192;2023-05-16T01:30:16;101754.25;;;9.08;41.98
46756;BME280;32506;52.826;-1.192;2023-05-16T01:32:42;101749.25;;;9.05;42.50
46756;BME280;32506;52.826;-1.192;2023-05-16T01:35:09;101749.59;;;9.02;42.41
46756;BME280;32506;52.826;-1.192;2023-05-16T01:37:41;101750.78;;;8.99;42.86
46756;BME280;32506;52.826;-1.192;2023-05-16T01:40:12;101751.94;;;8.97;43.31
46756;BME280;32506;52.826;-1.192;2023-05-16T01:42:44;101752.13;;;8.95;43.14
46756;BME280;32506;52.826;-1.192;2023-05-16T01:45:19;101741.81;;;8.92;43.00
46756;BME280;32506;52.826;-1.192;2023-05-16T01:47:55;101748.31;;;8.89;43.15
46756;BME280;32506;52.826;-1.192;2023-05-16T01:50:24;101745.00;;;8.87;43.36
46756;BME280;32506;52.826;-1.192;2023-05-16T01:53:05;101750.50;;;8.86;43.35
46756;BME280;32506;52.826;-1.192;2023-05-16T01:55:47;101746.50;;;8.82;43.47
46756;BME280;32506;52.826;-1.192;2023-05-16T01:58:15;101749.53;;;8.79;43.44
46756;BME280;32506;52.826;-1.192;2023-05-16T02:00:41;101741.72;;;8.77;43.42
46756;BME280;32506;52.826;-1.192;2023-05-16T02:03:07;101756.22;;;8.75;43.74
46756;BME280;32506;52.826;-1.192;2023-05-16T02:05:33;101746.91;;;8.70;43.96
46756;BME280;32506;52.826;-1.192;2023-05-16T02:07:59;101753.22;;;8.69;43.84
46756;BME280;32506;52.826;-1.192;2023-05-16T02:10:25;101757.06;;;8.67;43.74
46756;BME280;32506;52.826;-1.192;2023-05-16T02:12:51;101753.91;;;8.63;43.89
46756;BME280;32506;52.826;-1.192;2023-05-16T02:15:17;101750.59;;;8.61;43.59
46756;BME280;32506;52.826;-1.192;2023-05-16T02:17:42;101751.75;;;8.59;43.48
46756;BME280;32506;52.826;-1.192;2023-05-16T02:20:08;101756.59;;;8.55;43.50
46756;BME280;32506;52.826;-1.192;2023-05-16T02:22:35;101757.75;;;8.52;43.40
46756;BME280;32506;52.826;-1.192;2023-05-16T02:25:02;101755.44;;;8.49;43.80
46756;BME280;32506;52.826;-1.192;2023-05-16T02:27:28;101751.47;;;8.45;43.20
46756;BME280;32506;52.826;-1.192;2023-05-16T02:29:53;101756.09;;;8.43;43.37
46756;BME280;32506;52.826;-1.192;2023-05-16T02:32:19;101756.44;;;8.40;43.17
46756;BME280;32506;52.826;-1.192;2023-05-16T02:34:44;101762.94;;;8.37;43.26
46756;BME280;32506;52.826;-1.192;2023-05-16T02:37:10;101757.94;;;8.34;43.57
46756;BME280;32506;52.826;-1.192;2023-05-16T02:39:35;101758.28;;;8.31;43.39
46756;BME280;32506;52.826;-1.192;2023-05-16T02:42:02;101755.94;;;8.28;43.20
46756;BME280;32506;52.826;-1.192;2023-05-16T02:44:28;101748.31;;;8.25;42.87
46756;BME280;32506;52.826;-1.192;2023-05-16T02:46:53;101757.47;;;8.22;43.25
46756;BME280;32506;52.826;-1.192;2023-05-16T02:49:19;101757.81;;;8.19;43.17
46756;BME280;32506;52.826;-1.192;2023-05-16T02:51:45;101759.16;;;8.15;42.86
46756;BME280;32506;52.826;-1.192;2023-05-16T02:54:11;101763.78;;;8.13;43.17
46756;BME280;32506;52.826;-1.192;2023-05-16T02:56:37;101760.47;;;8.11;43.26
46756;BME280;32506;52.826;-1.192;2023-05-16T02:59:03;101751.97;;;8.07;43.13
46756;BME280;32506;52.826;-1.192;2023-05-16T03:01:29;101753.97;;;8.05;43.54
46756;BME280;32506;52.826;-1.192;2023-05-16T03:03:55;101754.31;;;8.02;43.48
46756;BME280;32506;52.826;-1.192;2023-05-16T03:06:20;101757.16;;;8.01;43.50
46756;BME280;32506;52.826;-1.192;2023-05-16T03:08:46;101749.50;;;7.98;43.32
46756;BME280;32506;52.826;-1.192;2023-05-16T03:11:12;101756.97;;;7.94;43.39
46756;BME280;32506;52.826;-1.192;2023-05-16T03:13:38;101751.81;;;7.93;43.82
46756;BME280;32506;52.826;-1.192;2023-05-16T03:16:04;101754.66;;;7.91;43.21
46756;BME280;32506;52.826;-1.192;2023-05-16T03:18:30;101751.50;;;7.87;43.47
46756;BME280;32506;52.826;-1.192;2023-05-16T03:20:56;101757.81;;;7.86;43.22
46756;BME280;32506;52.826;-1.192;2023-05-16T03:23:22;101763.28;;;7.85;43.33
46756;BME280;32506;52.826;-1.192;2023-05-16T03:25:48;101763.81;;;7.80;43.81
46756;BME280;32506;52.826;-1.192;2023-05-16T03:28:15;101766.59;;;7.79;43.48
46756;BME280;32506;52.826;-1.192;2023-05-16T03:30:42;101761.47;;;7.77;43.42
46756;BME280;32506;52.826;-1.192;2023-05-16T03:33:07;101759.13;;;7.74;43.90
46756;BME280;32506;52.826;-1.192;2023-05-16T03:35:34;101753.13;;;7.72;43.93
46756;BME280;32506;52.826;-1.192;2023-05-16T03:38:00;101755.13;;;7.70;44.10
46756;BME280;32506;52.826;-1.192;2023-05-16T03:40:25;101761.44;;;7.69;44.25
46756;BME280;32506;52.826;-1.192;2023-05-16T03:42:51;101760.81;;;7.67;44.34
46756;BME280;32506;52.826;-1.192;2023-05-16T03:45:16;101763.59;;;7.65;44.17
46756;BME280;32506;52.826;-1.192;2023-05-16T03:47:42;101764.63;;;7.64;44.32
46756;BME280;32506;52.826;-1.192;2023-05-16T03:50:08;101765.78;;;7.62;44.52
46756;BME280;32506;52.826;-1.192;2023-05-16T03:52:34;101769.44;;;7.61;44.35
46756;BME280;32506;52.826;-1.192;2023-05-16T03:55:00;101758.09;;;7.59;44.57
46756;BME280;32506;52.826;-1.192;2023-05-16T03:57:28;101757.44;;;7.56;44.82
46756;BME280;32506;52.826;-1.192;2023-05-16T03:59:54;101752.28;;;7.55;45.01
46756;BME280;32506;52.826;-1.192;2023-05-16T04:02:19;101758.59;;;7.54;45.10
46756;BME280;32506;52.826;-1.192;2023-05-16T04:04:45;101763.09;;;7.53;44.60
46756;BME280;32506;52.826;-1.192;2023-05-16T04:07:11;101758.09;;;7.50;44.71
46756;BME280;32506;52.826;-1.192;2023-05-16T04:09:36;101760.09;;;7.48;44.78
46756;BME280;32506;52.826;-1.192;2023-05-16T04:12:02;101774.38;;;7.47;45.53
46756;BME280;32506;52.826;-1.192;2023-05-16T04:14:27;101771.03;;;7.45;45.33
46756;BME280;32506;52.826;-1.192;2023-05-16T04:16:53;101773.72;;;7.45;44.84
46756;BME280;32506;52.826;-1.192;2023-05-16T04:19:18;101773.06;;;7.43;44.31
46756;BME280;32506;52.826;-1.192;2023-05-16T04:21:43;101775.03;;;7.41;44.84
46756;BME280;32506;52.826;-1.192;2023-05-16T04:24:09;101771.53;;;7.41;44.67
46756;BME280;32506;52.826;-1.192;2023-05-16T04:26:35;101774.38;;;7.39;44.77
46756;BME280;32506;52.826;-1.192;2023-05-16T04:29:02;101776.34;;;7.37;45.06
46756;BME280;32506;52.826;-1.192;2023-05-16T04:31:27;101774.72;;;7.36;45.09
46756;BME280;32506;52.826;-1.192;2023-05-16T04:33:52;101778.34;;;7.35;45.13
46756;BME280;32506;52.826;-1.192;2023-05-16T04:36:18;101787.31;;;7.34;45.29
46756;BME280;32506;52.826;-1.192;2023-05-16T04:38:44;101784.66;;;7.34;45.16
46756;BME280;32506;52.826;-1.192;2023-05-16T04:41:11;101785.81;;;7.31;45.02
46756;BME280;32506;52.826;-1.192;2023-05-16T04:43:37;101790.31;;;7.31;44.93
46756;BME280;32506;52.826;-1.192;2023-05-16T04:46:03;101795.63;;;7.31;45.48
46756;BME280;32506;52.826;-1.192;2023-05-16T04:48:29;101799.28;;;7.30;45.41
46756;BME280;32506;52.826;-1.192;2023-05-16T04:50:55;101797.59;;;7.29;45.07
46756;BME280;32506;52.826;-1.192;2023-05-16T04:53:21;101796.78;;;7.28;45.38
46756;BME280;32506;52.826;-1.192;2023-05-16T04:55:46;101787.97;;;7.28;44.91
46756;BME280;32506;52.826;-1.192;2023-05-16T04:58:12;101795.13;;;7.27;45.21
46756;BME280;32506;52.826;-1.192;2023-05-16T05:00:38;101802.28;;;7.27;45.23
46756;BME280;32506;52.826;-1.192;2023-05-16T05:03:03;101803.25;;;7.26;45.19
46756;BME280;32506;52.826;-1.192;2023-05-16T05:05:29;101795.28;;;7.26;44.80
46756;BME280;32506;52.826;-1.192;2023-05-16T05:07:57;101799.75;;;7.25;44.87
46756;BME280;32506;52.826;-1.192;2023-05-16T05:10:23;101794.44;;;7.25;44.91
46756;BME280;32506;52.826;-1.192;2023-05-16T05:12:48;101793.59;;;7.25;44.54
46756;BME280;32506;52.826;-1.192;2023-05-16T05:15:14;101794.44;;;7.25;44.60
46756;BME280;32506;52.826;-1.192;2023-05-16T05:17:39;101792.63;;;7.26;44.87
46756;BME280;32506;52.826;-1.192;2023-05-16T05:20:05;101796.94;;;7.27;44.77
46756;BME280;32506;52.826;-1.192;2023-05-16T05:22:34;101794.28;;;7.27;44.79
46756;BME280;32506;52.826;-1.192;2023-05-16T05:25:00;101790.63;;;7.28;44.91
46756;BME280;32506;52.826;-1.192;2023-05-16T05:27:25;101798.47;;;7.29;44.62
46756;BME280;32506;52.826;-1.192;2023-05-16T05:29:51;101795.78;;;7.29;44.52
46756;BME280;32506;52.826;-1.192;2023-05-16T05:32:17;101794.78;;;7.30;44.44
46756;BME280;32506;52.826;-1.192;2023-05-16T05:34:43;101801.59;;;7.33;44.24
46756;BME280;32506;52.826;-1.192;2023-05-16T05:37:08;101803.13;;;7.35;44.65
46756;BME280;32506;52.826;-1.192;2023-05-16T05:39:34;101802.94;;;7.37;44.54
46756;BME280;32506;52.826;-1.192;2023-05-16T05:42:00;101800.13;;;7.38;44.67
46756;BME280;32506;52.826;-1.192;2023-05-16T05:44:28;101809.78;;;7.39;44.54
46756;BME280;32506;52.826;-1.192;2023-05-16T05:46:55;101808.63;;;7.42;44.74
46756;BME280;32506;52.826;-1.192;2023-05-16T05:49:22;101816.25;;;7.45;44.65
46756;BME280;32506;52.826;-1.192;2023-05-16T05:51:48;101816.13;;;7.47;44.79
46756;BME280;32506;52.826;-1.192;2023-05-16T05:54:17;101820.28;;;7.49;44.68
46756;BME280;32506;52.826;-1.192;2023-05-16T05:56:42;101821.63;;;7.53;44.39
46756;BME280;32506;52.826;-1.192;2023-05-16T05:59:08;101817.81;;;7.56;44.47
46756;BME280;32506;52.826;-1.192;2023-05-16T06:01:33;101832.59;;;7.59;44.48
46756;BME280;32506;52.826;-1.192;2023-05-16T06:03:59;101821.66;;;7.62;44.64
46756;BME280;32506;52.826;-1.192;2023-05-16T06:06:25;101823.16;;;7.64;44.69
46756;BME280;32506;52.826;-1.192;2023-05-16T06:08:50;101830.63;;;7.69;45.13
46756;BME280;32506;52.826;-1.192;2023-05-16T06:11:17;101832.16;;;7.71;44.90
46756;BME280;32506;52.826;-1.192;2023-05-16T06:13:43;101828.31;;;7.74;44.95
46756;BME280;32506;52.826;-1.192;2023-05-16T06:16:08;101832.31;;;7.78;45.33
46756;BME280;32506;52.826;-1.192;2023-05-16T06:18:34;101830.00;;;7.83;45.60
46756;BME280;32506;52.826;-1.192;2023-05-16T06:20:59;101835.97;;;7.85;45.28
46756;BME280;32506;52.826;-1.192;2023-05-16T06:23:25;101830.19;;;7.90;45.75
46756;BME280;32506;52.826;-1.192;2023-05-16T06:25:51;101837.66;;;7.95;45.32
46756;BME280;32506;52.826;-1.192;2023-05-16T06:28:16;101842.69;;;7.98;45.83
46756;BME280;32506;52.826;-1.192;2023-05-16T06:30:42;101842.19;;;8.02;45.51
46756;BME280;32506;52.826;-1.192;2023-05-16T06:33:07;101836.38;;;8.07;46.08
46756;BME280;32506;52.826;-1.192;2023-05-16T06:35:33;101847.34;;;8.12;46.55
46756;BME280;32506;52.826;-1.192;2023-05-16T06:37:59;101845.00;;;8.17;46.50
46756;BME280;32506;52.826;-1.192;2023-05-16T06:40:24;101841.88;;;8.22;46.11
46756;BME280;32506;52.826;-1.192;2023-05-16T06:42:49;101844.03;;;8.27;46.69
46756;BME280;32506;52.826;-1.192;2023-05-16T06:45:15;101836.38;;;8.32;46.83
46756;BME280;32506;52.826;-1.192;2023-05-16T06:47:41;101843.84;;;8.36;47.00
46756;BME280;32506;52.826;-1.192;2023-05-16T06:50:07;101849.34;;;8.43;47.06
46756;BME280;32506;52.826;-1.192;2023-05-16T06:52:32;101847.03;;;8.48;47.95
46756;BME280;32506;52.826;-1.192;2023-05-16T06:54:58;101855.19;;;8.55;47.83
46756;BME280;32506;52.826;-1.192;2023-05-16T06:57:23;101845.69;;;8.61;47.93
46756;BME280;32506;52.826;-1.192;2023-05-16T06:59:48;101850.34;;;8.67;48.53
46756;BME280;32506;52.826;-1.192;2023-05-16T07:02:14;101854.00;;;8.74;48.45
46756;BME280;32506;52.826;-1.192;2023-05-16T07:04:39;101848.00;;;8.80;49.21
46756;BME280;32506;52.826;-1.192;2023-05-16T07:07:05;101850.63;;;8.88;49.20
46756;BME280;32506;52.826;-1.192;2023-05-16T07:09:32;101846.31;;;8.96;48.96
46756;BME280;32506;52.826;-1.192;2023-05-16T07:11:58;101856.09;;;9.03;49.78
46756;BME280;32506;52.826;-1.192;2023-05-16T07:14:23;101849.91;;;9.11;49.83
46756;BME280;32506;52.826;-1.192;2023-05-16T07:16:49;101852.53;;;9.19;50.04
46756;BME280;32506;52.826;-1.192;2023-05-16T07:19:14;101848.84;;;9.29;49.96
46756;BME280;32506;52.826;-1.192;2023-05-16T07:21:40;101850.66;;;9.36;50.53
46756;BME280;32506;52.826;-1.192;2023-05-16T07:24:06;101852.28;;;9.46;50.03
46756;BME280;32506;52.826;-1.192;2023-05-16T07:26:32;101851.22;;;9.55;50.20
46756;BME280;32506;52.826;-1.192;2023-05-16T07:28:57;101852.69;;;9.66;50.85
46756;BME280;32506;52.826;-1.192;2023-05-16T07:31:22;101850.59;;;9.76;51.02
46756;BME280;32506;52.826;-1.192;2023-05-16T07:33:48;101856.53;;;9.86;50.87
46756;BME280;32506;52.826;-1.192;2023-05-16T07:36:14;101853.63;;;9.96;51.31
46756;BME280;32506;52.826;-1.192;2023-05-16T07:38:40;101848.09;;;10.06;52.05
46756;BME280;32506;52.826;-1.192;2023-05-16T07:41:06;101853.66;;;10.19;51.71
46756;BME280;32506;52.826;-1.192;2023-05-16T07:43:31;101855.88;;;10.31;52.18
46756;BME280;32506;52.826;-1.192;2023-05-16T07:46:00;101858.19;;;10.42;51.91
46756;BME280;32506;52.826;-1.192;2023-05-16T07:48:25;101856.06;;;10.52;51.54
46756;BME280;32506;52.826;-1.192;2023-05-16T07:50:51;101857.28;;;10.65;51.96
46756;BME280;32506;52.826;-1.192;2023-05-16T07:53:17;101860.34;;;10.77;51.93
46756;BME280;32506;52.826;-1.192;2023-05-16T07:55:43;101856.19;;;10.89;52.44
46756;BME280;32506;52.826;-1.192;2023-05-16T07:58:08;101862.59;;;11.03;52.64
46756;BME280;32506;52.826;-1.192;2023-05-16T08:00:34;101861.94;;;11.16;52.35
46756;BME280;32506;52.826;-1.192;2023-05-16T08:02:59;101868.31;;;11.30;52.64
46756;BME280;32506;52.826;-1.192;2023-05-16T08:05:25;101861.06;;;11.45;52.52
46756;BME280;32506;52.826;-1.192;2023-05-16T08:07:50;101860.22;;;11.59;52.55
46756;BME280;32506;52.826;-1.192;2023-05-16T08:10:15;101857.50;;;11.74;52.69
46756;BME280;32506;52.826;-1.192;2023-05-16T08:12:41;101856.63;;;11.89;53.10
46756;BME280;32506;52.826;-1.192;2023-05-16T08:15:07;101855.78;;;12.03;52.96
46756;BME280;32506;52.826;-1.192;2023-05-16T08:17:33;101853.84;;;12.19;52.93
46756;BME280;32506;52.826;-1.192;2023-05-16T08:19:58;101849.44;;;12.33;53.02
46756;BME280;32506;52.826;-1.192;2023-05-16T08:22:26;101852.03;;;12.48;52.65
46756;BME280;32506;52.826;-1.192;2023-05-16T08:24:51;101855.44;;;12.63;52.52
46756;BME280;32506;52.826;-1.192;2023-05-16T08:27:17;101857.19;;;12.78;52.65
46756;BME280;32506;52.826;-1.192;2023-05-16T08:29:42;101863.09;;;12.95;52.09
46756;BME280;32506;52.826;-1.192;2023-05-16T08:32:08;101854.72;;;13.11;52.02
46756;BME280;32506;52.826;-1.192;2023-05-16T08:34:35;101854.38;;;13.27;51.29
46756;BME280;32506;52.826;-1.192;2023-05-16T08:37:01;101849.72;;;13.43;51.90
46756;BME280;32506;52.826;-1.192;2023-05-16T08:39:26;101851.03;;;13.61;51.34
46756;BME280;32506;52.826;-1.192;2023-05-16T08:41:52;101851.47;;;13.77;51.35
46756;BME280;32506;52.826;-1.192;2023-05-16T08:44:17;101846.56;;;13.95;50.96
46756;BME280;32506;52.826;-1.192;2023-05-16T08:46:53;101849.25;;;14.15;50.65
46756;BME280;32506;52.826;-1.192;2023-05-16T08:49:20;101847.00;;;14.32;50.14
46756;BME280;32506;52.826;-1.192;2023-05-16T08:51:47;101844.72;;;14.49;50.10
46756;BME280;32506;52.826;-1.192;2023-05-16T08:54:14;101845.16;;;14.66;50.14
46756;BME280;32506;52.826;-1.192;2023-05-16T08:56:41;101840.75;;;14.85;50.02
46756;BME280;32506;52.826;-1.192;2023-05-16T08:59:07;101841.75;;;15.04;49.92
46756;BME280;32506;52.826;-1.192;2023-05-16T09:01:33;101839.19;;;15.22;49.91
46756;BME280;32506;52.826;-1.192;2023-05-16T09:03:59;101846.38;;;15.42;49.71
46756;BME280;32506;52.826;-1.192;2023-05-16T09:06:26;101835.50;;;15.62;49.32
46756;BME280;32506;52.826;-1.192;2023-05-16T09:08:52;101838.13;;;15.82;49.42
46756;BME280;32506;52.826;-1.192;2023-05-16T09:11:18;101837.97;;;16.02;49.36
46756;BME280;32506;52.826;-1.192;2023-05-16T09:13:44;101838.88;;;16.21;49.00
46756;BME280;32506;52.826;-1.192;2023-05-16T09:16:15;101839.28;;;16.43;48.75
46756;BME280;32506;52.826;-1.192;2023-05-16T09:18:54;101846.78;;;16.67;48.51
46756;BME280;32506;52.826;-1.192;2023-05-16T09:21:21;101841.38;;;16.85;48.21
46756;BME280;32506;52.826;-1.192;2023-05-16T09:23:51;101846.59;;;17.05;47.97
46756;BME280;32506;52.826;-1.192;2023-05-16T09:26:17;101837.66;;;17.23;47.93
46756;BME280;32506;52.826;-1.192;2023-05-16T09:28:42;101835.75;;;17.42;47.70
46756;BME280;32506;52.826;-1.192;2023-05-16T09:31:24;101841.50;;;17.65;47.64
46756;BME280;32506;52.826;-1.192;2023-05-16T09:34:01;101836.63;;;17.85;47.23
46756;BME280;32506;52.826;-1.192;2023-05-16T09:36:26;101833.63;;;18.05;47.41
46756;BME280;32506;52.826;-1.192;2023-05-16T09:38:52;101834.34;;;18.24;46.85
46756;BME280;32506;52.826;-1.192;2023-05-16T09:41:18;101830.50;;;18.44;46.44
46756;BME280;32506;52.826;-1.192;2023-05-16T09:43:46;101836.63;;;18.63;46.35
46756;BME280;32506;52.826;-1.192;2023-05-16T09:46:15;101825.91;;;18.80;46.18
46756;BME280;32506;52.826;-1.192;2023-05-16T09:48:45;101838.72;;;18.97;45.87
46756;BME280;32506;52.826;-1.192;2023-05-16T09:51:12;101839.88;;;19.13;45.26
46756;BME280;32506;52.826;-1.192;2023-05-16T09:53:38;101838.28;;;19.28;45.10
46756;BME280;32506;52.826;-1.192;2023-05-16T09:56:11;101844.00;;;19.44;44.75
46756;BME280;32506;52.826;-1.192;2023-05-16T09:58:38;101828.28;;;19.58;44.15
46756;BME280;32506;52.826;-1.192;2023-05-16T10:01:05;101839.63;;;19.72;44.12
46756;BME280;32506;52.826;-1.192;2023-05-16T10:03:33;101839.13;;;19.87;43.94
46756;BME280;32506;52.826;-1.192;2023-05-16T10:05:59;101840.44;;;20.01;43.90
46756;BME280;32506;52.826;-1.192;2023-05-16T10:08:25;101834.44;;;20.16;44.09
46756;BME280;32506;52.826;-1.192;2023-05-16T10:10:53;101840.94;;;20.32;43.83
46756;BME280;32506;52.826;-1.192;2023-05-16T10:13:20;101843.88;;;20.48;40.29
46756;BME280;32506;52.826;-1.192;2023-05-16T10:15:48;101854.31;;;20.56;40.20
46756;BME280;32506;52.826;-1.192;2023-05-16T10:18:16;101843.44;;;20.56;38.79
46756;BME280;32506;52.826;-1.192;2023-05-16T10:20:44;101851.03;;;20.54;38.91
46756;BME280;32506;52.826;-1.192;2023-05-16T10:23:16;101845.88;;;20.52;37.47
46756;BME280;32506;52.826;-1.192;2023-05-16T10:25:43;101846.34;;;20.49;37.00
46756;BME280;32506;52.826;-1.192;2023-05-16T10:28:09;101856.66;;;20.47;38.53
46756;BME280;32506;52.826;-1.192;2023-05-16T10:30:36;101856.31;;;20.43;38.13
46756;BME280;32506;52.826;-1.192;2023-05-16T10:33:04;101854.91;;;20.41;38.63
46756;BME280;32506;52.826;-1.192;2023-05-16T10:35:30;101856.56;;;20.42;37.06
46756;BME280;32506;52.826;-1.192;2023-05-16T10:37:58;101855.25;;;20.44;37.59
46756;BME280;32506;52.826;-1.192;2023-05-16T10:40:23;101856.13;;;20.50;37.54
46756;BME280;32506;52.826;-1.192;2023-05-16T10:43:00;101849.72;;;20.56;37.02
46756;BME280;32506;52.826;-1.192;2023-05-16T10:45:26;101848.06;;;20.55;37.13
46756;BME280;32506;52.826;-1.192;2023-05-16T10:48:02;101839.84;;;20.50;36.84
46756;BME280;32506;52.826;-1.192;2023-05-16T10:50:42;101844.06;;;20.41;36.80
46756;BME280;32506;52.826;-1.192;2023-05-16T10:53:33;101830.91;;;20.33;36.97
46756;BME280;32506;52.826;-1.192;2023-05-16T11:01:26;101833.44;;;20.39;36.97
46756;BME280;32506;52.826;-1.192;2023-05-16T11:06:22;101837.47;;;20.54;38.14
46756;BME280;32506;52.826;-1.192;2023-05-16T11:17:09;101846.75;;;20.75;38.67
46756;BME280;32506;52.826;-1.192;2023-05-16T11:19:44;101858.19;;;20.77;38.44
46756;BME280;32506;52.826;-1.192;2023-05-16T11:22:22;101862.81;;;20.76;38.33
46756;BME280;32506;52.826;-1.192;2023-05-16T11:25:03;101844.94;;;20.81;36.70
46756;BME280;32506;52.826;-1.192;2023-05-16T11:27:30;101835.19;;;20.85;37.48
46756;BME280;32506;52.826;-1.192;2023-05-16T11:32:35;101842.59;;;20.89;37.63
46756;BME280;32506;52.826;-1.192;2023-05-16T11:35:07;101840.72;;;20.90;37.60
46756;BME280;32506;52.826;-1.192;2023-05-16T11:37:34;101838.81;;;20.90;37.56
46756;BME280;32506;52.826;-1.192;2023-05-16T11:40:09;101833.88;;;20.87;37.41
46756;BME280;32506;52.826;-1.192;2023-05-16T11:42:38;101838.25;;;20.88;37.36
46756;BME280;32506;52.826;-1.192;2023-05-16T11:45:09;101839.88;;;20.89;37.06
46756;BME280;32506;52.826;-1.192;2023-05-16T11:47:39;101838.00;;;20.90;37.09
46756;BME280;32506;52.826;-1.192;2023-05-16T11:50:23;101841.25;;;20.92;37.27
46756;BME280;32506;52.826;-1.192;2023-05-16T11:52:50;101845.06;;;20.91;37.23
46756;BME280;32506;52.826;-1.192;2023-05-16T11:55:26;101846.16;;;20.90;37.34
46756;BME280;32506;52.826;-1.192;2023-05-16T11:57:52;101850.19;;;20.87;36.80
46756;BME280;32506;52.826;-1.192;2023-05-16T12:00:22;101850.91;;;20.83;36.05
46756;BME280;32506;52.826;-1.192;2023-05-16T12:02:52;101844.03;;;20.75;36.16
46756;BME280;32506;52.826;-1.192;2023-05-16T12:05:19;101859.09;;;20.66;36.62
46756;BME280;32506;52.826;-1.192;2023-05-16T12:07:49;101855.16;;;20.56;36.86
46756;BME280;32506;52.826;-1.192;2023-05-16T12:10:15;101847.44;;;20.48;36.68
46756;BME280;32506;52.826;-1.192;2023-05-16T12:12:43;101849.97;;;20.38;36.86
46756;BME280;32506;52.826;-1.192;2023-05-16T12:15:10;101846.03;;;20.28;36.49
46756;BME280;32506;52.826;-1.192;2023-05-16T12:17:36;101854.84;;;20.19;37.26
46756;BME280;32506;52.826;-1.192;2023-05-16T12:20:04;101848.44;;;20.08;37.38
46756;BME280;32506;52.826;-1.192;2023-05-16T12:22:41;101844.72;;;19.97;37.39
46756;BME280;32506;52.826;-1.192;2023-05-16T12:25:24;101844.53;;;19.87;37.52
46756;BME280;32506;52.826;-1.192;2023-05-16T12:27:54;101845.63;;;19.74;37.84
46756;BME280;32506;52.826;-1.192;2023-05-16T12:30:22;101840.59;;;19.66;38.10
46756;BME280;32506;52.826;-1.192;2023-05-16T12:32:57;101845.84;;;19.55;37.71
46756;BME280;32506;52.826;-1.192;2023-05-16T12:35:24;101842.69;;;19.47;38.29
46756;BME280;32506;52.826;-1.192;2023-05-16T12:37:50;101845.78;;;19.38;38.56
46756;BME280;32506;52.826;-1.192;2023-05-16T12:40:16;101843.47;;;19.30;38.50
46756;BME280;32506;52.826;-1.192;2023-05-16T12:42:48;101848.19;;;19.23;38.48
46756;BME280;32506;52.826;-1.192;2023-05-16T12:45:15;101842.91;;;19.16;38.64
46756;BME280;32506;52.826;-1.192;2023-05-16T12:47:42;101839.28;;;19.10;38.63
46756;BME280;32506;52.826;-1.192;2023-05-16T12:50:11;101844.56;;;19.05;39.47
46756;BME280;32506;52.826;-1.192;2023-05-16T12:52:48;101841.53;;;19.02;38.50
46756;BME280;32506;52.826;-1.192;2023-05-16T12:55:16;101845.78;;;18.98;38.83
46756;BME280;32506;52.826;-1.192;2023-05-16T12:57:43;101841.44;;;18.97;38.84
46756;BME280;32506;52.826;-1.192;2023-05-16T13:00:11;101841.44;;;18.97;39.05
46756;BME280;32506;52.826;-1.192;2023-05-16T13:02:37;101839.53;;;18.97;39.40
46756;BME280;32506;52.826;-1.192;2023-05-16T13:05:03;101832.00;;;18.99;39.14
46756;BME280;32506;52.826;-1.192;2023-05-16T13:07:29;101832.25;;;18.98;39.20
46756;BME280;32506;52.826;-1.192;2023-05-16T13:09:55;101836.00;;;18.97;38.73
46756;BME280;32506;52.826;-1.192;2023-05-16T13:12:20;101837.06;;;18.95;38.97
46756;BME280;32506;52.826;-1.192;2023-05-16T13:14:51;101829.31;;;18.99;39.21